Time;durP1;ratioP1;P1;durP2;ratioP2;P2;SDS_P1;SDS_P2;PMS_P1;PMS_P2;Temp;Humidity;BMP_temperature;BMP_pressure;BME280_temperature;BME280_humidity;BME280_pressure;Samples;Min_cycle;Max_cycle;Signal;HPM_P1;HPM_P2
2022/10/26 00:01:06;;;;;;;15.25;8.82;;;10.40;99.90;;;;;;5054333;28;20182;-64
2022/10/26 00:03:34;;;;;;;16.50;9.30;;;10.40;99.90;;;;;;5073530;28;20094;-64
2022/10/26 00:06:09;;;;;;;18.85;9.45;;;10.40;99.90;;;;;;5073523;28;20055;-64
2022/10/26 00:08:38;;;;;;;14.45;8.05;;;10.40;99.90;;;;;;5071699;28;20048;-63
2022/10/26 00:11:06;;;;;;;15.80;9.80;;;10.40;99.90;;;;;;5073187;28;20040;-64
2022/10/26 00:13:33;;;;;;;15.05;8.48;;;10.40;99.90;;;;;;5054919;28;20076;-64
2022/10/26 00:16:01;;;;;;;18.65;9.45;;;10.40;99.90;;;;;;5053455;28;20080;-64
2022/10/26 00:18:28;;;;;;;16.52;8.57;;;10.40;99.90;;;;;;5055173;28;20083;-64
2022/10/26 00:20:55;;;;;;;18.65;9.13;;;10.40;99.90;;;;;;5072196;28;20110;-64
2022/10/26 00:23:22;;;;;;;12.35;8.43;;;10.40;99.90;;;;;;5054664;28;20114;-64
2022/10/26 00:25:55;;;;;;;12.02;8.32;;;10.40;99.90;;;;;;5050470;28;20049;-64
2022/10/26 00:28:22;;;;;;;15.45;8.40;;;10.40;99.90;;;;;;5048127;28;20137;-63
2022/10/26 00:30:49;;;;;;;15.20;8.40;;;10.40;99.90;;;;;;5070753;28;20098;-64
2022/10/26 00:33:17;;;;;;;13.90;8.68;;;10.40;99.90;;;;;;5047750;28;20543;-64
2022/10/26 00:35:43;;;;;;;18.45;8.00;;;10.40;99.90;;;;;;5036692;28;20134;-64
2022/10/26 00:38:10;;;;;;;17.30;8.65;;;10.40;99.90;;;;;;5053037;28;20377;-65
2022/10/26 00:40:37;;;;;;;14.02;8.30;;;10.40;99.90;;;;;;5071372;28;20500;-64
2022/10/26 00:43:10;;;;;;;16.08;8.57;;;10.40;99.90;;;;;;5071968;28;20470;-64
2022/10/26 00:45:36;;;;;;;14.02;8.45;;;10.40;99.90;;;;;;5072776;28;20435;-64
2022/10/26 00:48:06;;;;;;;14.55;9.00;;;10.40;99.90;;;;;;5047910;28;20084;-64
2022/10/26 00:50:37;;;;;;;16.05;8.50;;;10.30;99.90;;;;;;5034710;28;20049;-64
2022/10/26 00:53:06;;;;;;;13.88;9.27;;;10.30;99.90;;;;;;5046516;28;20111;-64
2022/10/26 00:55:37;;;;;;;15.60;8.75;;;10.30;99.90;;;;;;5053815;28;20473;-64
2022/10/26 00:58:08;;;;;;;19.38;9.73;;;10.30;99.90;;;;;;5048772;28;20045;-63
2022/10/26 01:00:35;;;;;;;16.35;9.13;;;10.30;99.90;;;;;;5049300;28;20052;-64
2022/10/26 01:03:06;;;;;;;13.90;9.30;;;10.30;99.90;;;;;;5071848;28;20473;-64
2022/10/26 01:05:33;;;;;;;;;;;10.30;99.90;;;;;;5072579;28;20067;-64
2022/10/26 01:08:01;;;;;;;15.05;8.52;;;10.30;99.90;;;;;;5055745;28;19978;-63
2022/10/26 01:10:29;;;;;;;16.95;8.90;;;10.30;99.90;;;;;;5046763;28;20045;-64
2022/10/26 01:12:58;;;;;;;17.23;9.13;;;10.30;99.90;;;;;;5053318;28;20094;-63
2022/10/26 01:15:36;;;;;;;15.15;9.48;;;10.30;99.90;;;;;;5071886;28;20052;-63
2022/10/26 01:18:11;;;;;;;16.50;9.35;;;10.30;99.90;;;;;;5070872;28;20492;-64
2022/10/26 01:21:09;;;;;;;21.13;9.88;;;10.20;99.90;;;;;;5054144;28;20044;-63
2022/10/26 01:23:46;;;;;;;13.43;8.77;;;10.20;99.90;;;;;;5054343;28;20048;-64
2022/10/26 01:26:32;;;;;;;13.63;9.55;;;10.20;99.90;;;;;;5071019;28;20048;-64
2022/10/26 01:29:15;;;;;;;19.92;9.80;;;10.20;99.90;;;;;;5071254;28;20491;-64
2022/10/26 01:31:48;;;;;;;17.98;10.75;;;10.20;99.90;;;;;;5071439;28;20094;-64
2022/10/26 01:34:22;;;;;;;17.55;9.27;;;10.20;99.90;;;;;;5046009;28;20049;-64
2022/10/26 01:36:54;;;;;;;16.83;10.15;;;10.10;99.90;;;;;;5052760;28;20141;-63
2022/10/26 01:39:27;;;;;;;14.65;9.50;;;10.10;99.90;;;;;;5070173;28;20074;-63
2022/10/26 01:41:58;;;;;;;15.23;10.10;;;10.10;99.90;;;;;;5047093;28;20113;-64
2022/10/26 01:44:29;;;;;;;15.05;9.40;;;10.10;99.90;;;;;;5069736;28;20118;-63
2022/10/26 01:46:58;;;;;;;;;;;10.00;99.90;;;;;;5070540;28;20051;-64
2022/10/26 01:49:28;;;;;;;14.10;9.57;;;10.00;99.90;;;;;;5053794;28;19994;-64
2022/10/26 01:51:55;;;;;;;14.75;8.85;;;9.90;99.90;;;;;;5071493;28;20040;-64
2022/10/26 01:54:22;;;;;;;14.95;9.88;;;9.90;99.90;;;;;;5070565;28;20139;-65
2022/10/26 01:56:52;;;;;;;16.65;10.00;;;9.90;99.90;;;;;;5066868;28;20063;-64
2022/10/26 01:59:47;;;;;;;17.77;9.70;;;9.90;99.90;;;;;;5051791;28;20052;-64
2022/10/26 02:02:50;;;;;;;18.38;9.88;;;9.80;99.90;;;;;;5052470;28;20044;-64
2022/10/26 02:05:44;;;;;;;16.73;10.13;;;9.80;99.90;;;;;;5053637;28;20341;-62
2022/10/26 02:08:27;;;;;;;16.10;9.77;;;9.80;99.90;;;;;;5070368;28;20048;-64
2022/10/26 02:11:02;;;;;;;19.88;10.32;;;9.80;99.90;;;;;;5044690;28;20044;-64
2022/10/26 02:13:37;;;;;;;19.25;10.30;;;9.80;99.90;;;;;;5052935;28;20084;-64
2022/10/26 02:16:13;;;;;;;16.02;9.70;;;9.70;99.90;;;;;;5070794;28;20118;-63
2022/10/26 02:18:47;;;;;;;17.45;9.93;;;9.70;99.90;;;;;;5047178;28;20056;-65
2022/10/26 02:21:20;;;;;;;22.15;9.98;;;9.70;99.90;;;;;;5051956;28;20090;-63
2022/10/26 02:23:48;;;;;;;16.80;10.05;;;9.70;99.90;;;;;;5069747;28;20045;-63
2022/10/26 02:26:19;;;;;;;15.07;9.77;;;9.60;99.90;;;;;;5046127;28;20053;-64
2022/10/26 02:28:50;;;;;;;15.93;9.52;;;9.60;99.90;;;;;;5069221;28;20474;-64
2022/10/26 02:31:19;;;;;;;14.80;10.07;;;9.60;99.90;;;;;;5071273;28;20045;-64
2022/10/26 02:33:49;;;;;;;18.63;9.55;;;9.60;99.90;;;;;;5045067;28;20098;-64
2022/10/26 02:36:20;;;;;;;17.40;9.70;;;9.60;99.90;;;;;;5044888;28;20460;-64
2022/10/26 02:38:49;;;;;;;14.63;9.35;;;9.60;99.90;;;;;;5052146;28;20312;-64
2022/10/26 02:41:18;;;;;;;18.67;10.73;;;9.50;99.90;;;;;;5034055;28;20037;-65
2022/10/26 02:43:53;;;;;;;17.60;9.23;;;9.50;99.90;;;;;;5068430;28;20106;-64
2022/10/26 02:46:23;;;;;;;13.88;8.90;;;9.50;99.90;;;;;;5070961;28;20094;-65
2022/10/26 02:48:50;;;;;;;17.17;9.73;;;9.50;99.90;;;;;;5070881;28;20446;-64
2022/10/26 02:51:24;;;;;;;17.77;9.88;;;9.50;99.90;;;;;;5069827;28;20042;-63
2022/10/26 02:53:57;;;;;;;17.92;10.10;;;9.50;99.90;;;;;;5070661;28;20102;-64
2022/10/26 02:56:29;;;;;;;14.57;9.15;;;9.40;99.90;;;;;;5070469;28;20052;-64
2022/10/26 02:59:00;;;;;;;21.65;10.27;;;9.40;99.90;;;;;;5073233;28;20049;-64
2022/10/26 03:01:28;;;;;;;17.55;10.30;;;9.40;99.90;;;;;;5074385;28;20083;-63
2022/10/26 03:03:57;;;;;;;17.75;10.20;;;9.30;99.90;;;;;;5073674;28;20090;-64
2022/10/26 03:06:26;;;;;;;17.80;10.65;;;9.30;99.90;;;;;;5054183;28;20049;-64
2022/10/26 03:08:53;;;;;;;18.48;10.43;;;9.30;99.90;;;;;;5056739;28;20101;-63
2022/10/26 03:11:20;;;;;;;15.85;9.68;;;9.30;99.90;;;;;;5051019;28;20480;-63
2022/10/26 03:13:47;;;;;;;14.32;9.48;;;9.30;99.90;;;;;;5049919;28;20098;-64
2022/10/26 03:16:14;;;;;;;15.32;9.57;;;9.20;99.90;;;;;;5049969;28;20045;-64
2022/10/26 03:18:41;;;;;;;16.08;9.80;;;9.20;99.90;;;;;;5048614;28;20143;-64
2022/10/26 03:21:07;;;;;;;14.13;9.50;;;9.10;99.90;;;;;;5072609;28;20044;-64
2022/10/26 03:23:36;;;;;;;16.88;9.50;;;9.10;99.90;;;;;;5072933;28;20051;-64
2022/10/26 03:26:02;;;;;;;18.33;9.60;;;9.00;99.90;;;;;;5053405;28;20507;-63
2022/10/26 03:28:29;;;;;;;18.95;9.52;;;9.10;99.90;;;;;;5054512;28;20095;-63
2022/10/26 03:30:56;;;;;;;18.25;10.30;;;9.00;99.90;;;;;;5051019;28;20094;-64
2022/10/26 03:33:23;;;;;;;15.57;9.20;;;9.00;99.90;;;;;;5049048;28;20044;-63
2022/10/26 03:35:55;;;;;;;20.13;9.82;;;9.00;99.90;;;;;;5071382;28;20098;-63
2022/10/26 03:38:22;;;;;;;14.05;9.75;;;9.00;99.90;;;;;;5048047;28;20055;-64
2022/10/26 03:40:50;;;;;;;16.70;10.60;;;9.00;99.90;;;;;;5054085;28;20368;-63
2022/10/26 03:43:17;;;;;;;17.85;9.70;;;9.10;99.90;;;;;;5034859;28;20102;-63
2022/10/26 03:45:44;;;;;;;16.23;9.75;;;9.00;99.90;;;;;;5052458;28;20106;-64
2022/10/26 03:48:11;;;;;;;17.13;10.48;;;9.10;99.90;;;;;;5037835;28;20057;-64
2022/10/26 03:50:38;;;;;;;18.77;10.35;;;9.10;99.90;;;;;;5042671;28;20080;-63
2022/10/26 03:53:05;;;;;;;19.42;11.68;;;9.10;99.90;;;;;;5039797;28;20067;-63
2022/10/26 03:55:32;;;;;;;16.45;9.50;;;9.10;99.90;;;;;;5035295;28;20049;-63
2022/10/26 03:58:01;;;;;;;19.50;10.90;;;9.20;99.90;;;;;;5039738;28;20060;-63
2022/10/26 04:00:28;;;;;;;23.40;10.30;;;9.20;99.90;;;;;;5038226;28;20118;-64
2022/10/26 04:02:56;;;;;;;18.67;11.07;;;9.20;99.90;;;;;;5039730;28;20095;-63
2022/10/26 04:05:25;;;;;;;21.50;11.18;;;9.40;99.90;;;;;;5040858;28;20048;-62
2022/10/26 04:07:55;;;;;;;16.08;10.25;;;9.50;99.90;;;;;;5038298;28;20056;-63
2022/10/26 04:10:22;;;;;;;;;;;9.40;99.90;;;;;;5057097;28;20094;-63
2022/10/26 04:12:49;;;;;;;17.58;10.35;;;9.50;99.90;;;;;;5040806;28;19968;-63
2022/10/26 04:15:18;;;;;;;20.23;11.68;;;9.70;99.90;;;;;;5057807;28;20111;-63
2022/10/26 04:17:46;;;;;;;18.50;10.93;;;9.70;99.90;;;;;;5040931;28;20118;-63
2022/10/26 04:20:13;;;;;;;16.25;10.43;;;9.90;99.90;;;;;;5052274;28;20048;-64
2022/10/26 04:22:40;;;;;;;17.67;10.90;;;9.90;99.90;;;;;;5056665;28;20048;-63
2022/10/26 04:25:07;;;;;;;15.27;10.45;;;9.80;99.90;;;;;;5037087;28;20491;-63
2022/10/26 04:27:35;;;;;;;17.08;11.75;;;9.80;99.90;;;;;;5042509;28;20737;-63
2022/10/26 04:30:02;;;;;;;21.10;12.48;;;9.70;99.90;;;;;;5036423;28;20048;-63
2022/10/26 04:32:30;;;;;;;16.45;10.93;;;9.70;99.90;;;;;;5054078;28;20440;-64
2022/10/26 04:34:57;;;;;;;28.88;12.60;;;9.80;99.90;;;;;;5052422;28;20057;-63
2022/10/26 04:37:23;;;;;;;18.67;10.82;;;9.90;99.90;;;;;;5056582;28;20103;-63
2022/10/26 04:39:50;;;;;;;20.73;12.00;;;9.80;99.90;;;;;;5054759;28;21082;-63
2022/10/26 04:42:17;;;;;;;19.48;12.63;;;9.80;99.90;;;;;;5043703;28;20114;-64
2022/10/26 04:44:44;;;;;;;20.17;12.70;;;9.70;99.90;;;;;;5052169;28;20088;-63
2022/10/26 04:47:11;;;;;;;19.20;12.25;;;9.70;99.90;;;;;;5040371;28;20044;-63
2022/10/26 04:49:39;;;;;;;18.67;11.82;;;9.70;99.90;;;;;;5038817;28;20052;-63
2022/10/26 04:52:06;;;;;;;23.88;13.80;;;9.80;99.90;;;;;;5053934;28;20151;-63
2022/10/26 04:54:33;;;;;;;20.60;12.68;;;9.80;99.90;;;;;;5052819;28;20107;-63
2022/10/26 04:57:00;;;;;;;19.23;12.15;;;9.80;99.90;;;;;;5041919;28;20048;-63
2022/10/26 04:59:26;;;;;;;17.77;12.15;;;9.90;99.90;;;;;;5061251;28;20467;-63
2022/10/26 05:01:53;;;;;;;20.17;12.90;;;9.90;99.90;;;;;;5052465;28;20554;-64
2022/10/26 05:04:20;;;;;;;21.20;12.73;;;9.90;99.90;;;;;;5040524;28;20061;-63
2022/10/26 05:06:48;;;;;;;18.35;12.18;;;10.00;99.90;;;;;;5049082;28;20110;-64
2022/10/26 05:09:15;;;;;;;24.33;13.40;;;10.00;99.90;;;;;;5043497;28;20480;-64
2022/10/26 05:11:42;;;;;;;18.38;12.52;;;10.00;99.90;;;;;;5042695;28;20048;-64
2022/10/26 05:14:09;;;;;;;22.92;14.25;;;10.00;99.90;;;;;;5046541;28;20497;-64
2022/10/26 05:16:36;;;;;;;20.85;12.98;;;10.10;99.90;;;;;;5050783;28;20417;-64
2022/10/26 05:19:03;;;;;;;20.27;12.93;;;10.10;99.90;;;;;;5040694;28;20060;-63
2022/10/26 05:21:30;;;;;;;24.08;12.57;;;10.10;99.90;;;;;;5042157;28;20044;-64
2022/10/26 05:23:58;;;;;;;21.77;11.93;;;10.10;99.90;;;;;;5044769;28;20052;-64
2022/10/26 05:26:25;;;;;;;21.80;12.30;;;10.10;99.90;;;;;;5052838;28;20045;-64
2022/10/26 05:28:52;;;;;;;19.75;12.52;;;10.10;99.90;;;;;;5042470;28;20052;-64
2022/10/26 05:31:20;;;;;;;20.73;12.20;;;10.10;99.90;;;;;;5039801;28;20049;-64
2022/10/26 05:33:49;;;;;;;24.17;12.80;;;10.10;99.90;;;;;;5050966;28;20167;-63
2022/10/26 05:36:16;;;;;;;20.23;12.45;;;10.10;99.90;;;;;;5050181;28;20049;-64
2022/10/26 05:38:43;;;;;;;18.88;11.48;;;10.10;99.90;;;;;;5045239;28;20385;-63
2022/10/26 05:41:11;;;;;;;20.15;12.77;;;10.10;99.90;;;;;;5045376;28;20201;-63
2022/10/26 05:43:38;;;;;;;18.30;12.13;;;10.20;99.90;;;;;;5060042;28;20546;-64
2022/10/26 05:46:05;;;;;;;21.23;12.65;;;10.20;99.90;;;;;;5050113;28;20095;-63
2022/10/26 05:48:32;;;;;;;17.23;12.32;;;10.20;99.90;;;;;;5041582;28;20053;-65
2022/10/26 05:51:00;;;;;;;19.83;12.68;;;10.10;99.90;;;;;;5050107;28;20491;-64
2022/10/26 05:53:27;;;;;;;22.95;12.10;;;10.20;99.90;;;;;;5050938;28;20730;-63
2022/10/26 05:55:54;;;;;;;20.02;12.40;;;10.20;99.90;;;;;;5045431;28;20446;-64
2022/10/26 05:58:24;;;;;;;20.20;12.93;;;10.20;99.90;;;;;;5040898;28;20098;-63
2022/10/26 06:01:10;;;;;;;18.40;12.20;;;10.20;99.90;;;;;;5040406;28;20061;-65
2022/10/26 06:03:49;;;;;;;18.73;12.70;;;10.30;99.90;;;;;;5053238;28;20087;-63
2022/10/26 06:06:17;;;;;;;20.48;12.40;;;10.30;99.90;;;;;;5050205;28;20412;-64
2022/10/26 06:08:44;;;;;;;19.88;11.30;;;10.30;99.90;;;;;;5058212;28;20186;-63
2022/10/26 06:11:11;;;;;;;18.00;11.98;;;10.40;99.90;;;;;;5045603;28;20056;-63
2022/10/26 06:13:40;;;;;;;21.00;11.82;;;10.30;99.90;;;;;;5059468;28;20083;-63
2022/10/26 06:16:22;;;;;;;17.85;11.05;;;10.40;99.90;;;;;;5044765;28;20434;-64
2022/10/26 06:19:00;;;;;;;16.40;10.57;;;10.40;99.90;;;;;;5050520;28;20102;-65
2022/10/26 06:21:41;;;;;;;18.83;10.70;;;10.40;99.90;;;;;;5040719;28;21425;-64
2022/10/26 06:24:12;;;;;;;18.35;11.15;;;10.50;99.90;;;;;;5046023;28;20102;-64
2022/10/26 06:26:42;;;;;;;;;;;10.50;99.90;;;;;;5042660;28;20111;-64
2022/10/26 06:29:19;;;;;;;21.77;11.43;;;10.40;99.90;;;;;;5053939;28;19929;-63
2022/10/26 06:31:46;;;;;;;16.95;10.48;;;10.50;99.90;;;;;;5040526;28;20496;-63
2022/10/26 06:34:22;;;;;;;18.23;10.98;;;10.80;99.90;;;;;;5056092;28;20098;-63
2022/10/26 06:36:50;;;;;;;16.92;10.52;;;10.50;99.90;;;;;;5061815;28;20052;-64
2022/10/26 06:39:18;;;;;;;17.42;11.02;;;11.10;99.90;;;;;;5061830;28;20098;-64
2022/10/26 06:41:46;;;;;;;16.50;11.23;;;10.50;99.90;;;;;;5061761;28;20114;-63
2022/10/26 06:44:22;;;;;;;17.98;11.00;;;10.50;99.90;;;;;;5074620;28;20465;-63
2022/10/26 06:46:55;;;;;;;18.85;11.27;;;10.50;99.90;;;;;;5050732;28;20134;-63
2022/10/26 06:49:29;;;;;;;19.83;11.70;;;10.50;99.90;;;;;;5023822;28;20132;-64
2022/10/26 06:51:59;;;;;;;16.85;11.18;;;10.50;99.90;;;;;;5048235;28;20079;-63
2022/10/26 06:54:29;;;;;;;;;;;10.50;99.90;;;;;;5041876;28;20122;-64
2022/10/26 06:56:56;;;;;;;19.45;10.95;;;10.60;99.90;;;;;;5073526;28;20340;-64
2022/10/26 06:59:33;;;;;;;25.92;13.13;;;10.50;99.90;;;;;;5056379;28;20076;-65
2022/10/26 07:02:00;;;;;;;17.13;11.13;;;10.60;99.90;;;;;;5053154;28;20492;-64
2022/10/26 07:04:27;;;;;;;17.58;10.85;;;10.60;99.90;;;;;;5036773;28;20594;-64
2022/10/26 07:06:55;;;;;;;22.75;10.60;;;10.70;99.90;;;;;;5055454;28;20044;-64
2022/10/26 07:09:22;;;;;;;72.93;20.73;;;10.70;99.90;;;;;;5056852;28;20056;-64
2022/10/26 07:11:49;;;;;;;17.52;10.70;;;10.70;99.90;;;;;;5061819;28;20049;-64
2022/10/26 07:14:16;;;;;;;15.15;10.18;;;10.80;99.90;;;;;;5073834;28;20044;-64
2022/10/26 07:16:44;;;;;;;14.23;9.05;;;10.80;99.90;;;;;;5050023;28;20056;-64
2022/10/26 07:19:11;;;;;;;15.63;10.18;;;10.90;99.90;;;;;;5041198;28;20455;-64
2022/10/26 07:21:38;;;;;;;15.15;8.82;;;11.00;99.90;;;;;;5055028;28;20049;-64
2022/10/26 07:24:05;;;;;;;19.95;9.00;;;11.10;99.90;;;;;;5054201;28;20499;-63
2022/10/26 07:26:32;;;;;;;14.70;8.20;;;11.20;99.90;;;;;;5037328;28;20049;-63
2022/10/26 07:28:59;;;;;;;14.25;8.23;;;11.20;99.90;;;;;;5054566;28;20045;-63
2022/10/26 07:31:26;;;;;;;14.57;8.20;;;11.30;99.90;;;;;;5037166;28;20048;-64
2022/10/26 07:33:54;;;;;;;12.52;8.27;;;11.40;99.90;;;;;;5037113;28;20492;-64
2022/10/26 07:36:22;;;;;;;17.05;8.38;;;11.50;99.90;;;;;;5041507;28;20040;-64
2022/10/26 07:38:51;;;;;;;13.75;8.27;;;11.60;99.90;;;;;;5050345;28;20095;-64
2022/10/26 07:41:18;;;;;;;18.77;8.70;;;11.60;99.90;;;;;;5050563;28;20052;-64
2022/10/26 07:43:46;;;;;;;14.02;7.75;;;11.70;99.90;;;;;;5073286;28;20052;-64
2022/10/26 07:46:13;;;;;;;13.18;8.60;;;11.70;99.90;;;;;;5064468;28;20053;-63
2022/10/26 07:48:42;;;;;;;13.68;8.40;;;11.80;99.90;;;;;;5037191;28;20068;-63
2022/10/26 07:51:10;;;;;;;10.68;7.82;;;11.90;99.90;;;;;;5055168;28;20048;-64
2022/10/26 07:53:37;;;;;;;12.55;8.02;;;12.00;99.90;;;;;;5072848;28;20056;-63
2022/10/26 07:56:04;;;;;;;11.07;7.00;;;12.00;99.90;;;;;;5055202;28;20056;-64
2022/10/26 07:58:31;;;;;;;12.30;7.10;;;12.10;99.90;;;;;;5072885;28;20110;-64
2022/10/26 08:01:04;;;;;;;10.30;7.07;;;12.20;99.90;;;;;;5072658;28;20048;-63
2022/10/26 08:03:31;;;;;;;12.75;7.43;;;12.30;99.90;;;;;;5073291;28;20051;-63
2022/10/26 08:05:58;;;;;;;10.85;7.13;;;12.50;99.90;;;;;;5072739;28;20128;-64
2022/10/26 08:08:26;;;;;;;13.32;7.10;;;12.60;99.90;;;;;;5048187;28;20102;-64
2022/10/26 08:10:53;;;;;;;7.95;6.38;;;12.70;99.90;;;;;;5071222;28;20554;-65
2022/10/26 08:13:20;;;;;;;13.68;6.85;;;12.90;99.90;;;;;;5059877;28;20056;-64
2022/10/26 08:15:47;;;;;;;11.75;5.85;;;13.10;99.90;;;;;;5043894;28;20129;-64
2022/10/26 08:18:14;;;;;;;8.57;6.13;;;13.20;99.90;;;;;;5069759;28;20044;-64
2022/10/26 08:20:41;;;;;;;15.73;6.70;;;13.20;99.90;;;;;;5047857;28;20385;-64
2022/10/26 08:23:08;;;;;;;9.50;5.93;;;13.40;99.90;;;;;;5053837;28;20091;-64
2022/10/26 08:25:36;;;;;;;11.85;6.55;;;13.50;99.90;;;;;;5047668;28;20098;-64
2022/10/26 08:28:04;;;;;;;9.95;5.50;;;13.70;99.90;;;;;;5038922;28;20041;-64
2022/10/26 08:30:31;;;;;;;12.32;5.50;;;14.00;99.90;;;;;;5055658;28;20554;-64
2022/10/26 08:32:59;;;;;;;10.70;5.78;;;14.30;99.90;;;;;;5053444;28;20044;-64
2022/10/26 08:35:26;;;;;;;9.75;5.25;;;14.70;99.90;;;;;;5035286;28;20111;-65
2022/10/26 08:37:54;;;;;;;10.15;5.65;;;15.00;99.90;;;;;;5052776;28;20056;-64
2022/10/26 08:40:25;;;;;;;7.15;5.10;;;15.40;99.90;;;;;;5050106;28;20496;-64
2022/10/26 08:42:57;;;;;;;11.30;5.75;;;16.50;99.90;;;;;;5047973;28;20083;-64
2022/10/26 08:45:29;;;;;;;6.72;4.25;;;18.10;99.90;;;;;;5067466;28;20068;-64
2022/10/26 08:48:00;;;;;;;11.85;4.47;;;19.50;99.90;;;;;;5053459;28;20148;-65
2022/10/26 08:50:31;;;;;;;7.35;4.03;;;20.60;99.90;;;;;;5071193;28;20110;-64
2022/10/26 08:53:03;;;;;;;8.30;3.72;;;21.10;99.90;;;;;;5072276;28;20064;-63
2022/10/26 08:55:38;;;;;;;10.88;4.32;;;21.90;99.90;;;;;;5047010;28;20131;-65
2022/10/26 08:58:14;;;;;;;5.45;3.28;;;22.50;99.90;;;;;;5064177;28;20503;-65
2022/10/26 09:00:42;;;;;;;9.35;3.35;;;23.20;99.90;;;;;;5047201;28;20147;-65
2022/10/26 09:03:14;;;;;;;5.28;3.10;;;23.70;99.90;;;;;;5070201;28;20098;-69
2022/10/26 09:05:53;;;;;;;4.28;2.78;;;23.60;99.90;;;;;;5071932;28;20067;-65
2022/10/26 09:08:31;;;;;;;5.85;3.10;;;24.10;99.80;;;;;;5071873;28;20048;-65
2022/10/26 09:11:08;;;;;;;4.90;2.78;;;24.10;98.40;;;;;;5046435;28;20064;-65
2022/10/26 09:13:50;;;;;;;5.90;3.10;;;24.30;98.30;;;;;;5036113;28;20048;-66
2022/10/26 09:16:26;;;;;;;3.75;2.67;;;24.70;98.50;;;;;;5038985;28;20053;-66
2022/10/26 09:19:07;;;;;;;3.97;2.20;;;24.50;97.40;;;;;;5053008;28;20459;-65
2022/10/26 09:21:43;;;;;;;6.47;2.25;;;24.20;97.20;;;;;;5046969;28;20048;-65
2022/10/26 09:24:15;;;;;;;3.78;2.40;;;24.10;97.60;;;;;;5071208;28;20044;-65
2022/10/26 09:27:03;;;;;;;7.88;2.70;;;24.20;95.60;;;;;;5057399;28;20052;-66
2022/10/26 09:29:36;;;;;;;7.93;2.45;;;24.70;95.80;;;;;;5070410;28;20044;-66
2022/10/26 09:32:06;;;;;;;7.18;3.00;;;25.30;95.80;;;;;;5070787;28;20102;-66
2022/10/26 09:34:40;;;;;;;6.45;2.38;;;25.20;95.50;;;;;;5071729;28;20044;-66
2022/10/26 09:37:14;;;;;;;5.55;2.35;;;25.00;96.20;;;;;;5042711;28;20053;-66
2022/10/26 09:39:51;;;;;;;4.93;2.47;;;25.20;95.50;;;;;;5038340;28;20099;-66
2022/10/26 09:42:24;;;;;;;8.02;2.38;;;25.20;94.00;;;;;;5052234;28;20086;-66
2022/10/26 09:44:57;;;;;;;12.00;2.55;;;25.30;95.10;;;;;;5052882;28;20077;-66
2022/10/26 09:47:32;;;;;;;6.63;2.20;;;25.80;93.20;;;;;;5052820;28;20052;-66
2022/10/26 09:50:06;;;;;;;15.52;3.17;;;25.80;93.10;;;;;;5059235;28;20044;-66
2022/10/26 09:52:33;;;;;;;6.95;2.20;;;25.70;94.30;;;;;;5056181;28;20045;-65
2022/10/26 09:55:00;;;;;;;6.45;2.45;;;26.10;94.40;;;;;;5070941;28;20098;-66
2022/10/26 09:57:27;;;;;;;6.05;2.17;;;26.20;93.20;;;;;;5053077;28;20044;-65
2022/10/26 09:59:56;;;;;;;4.93;2.78;;;26.50;92.70;;;;;;5070598;28;20048;-65
2022/10/26 10:02:37;;;;;;;6.50;2.20;;;27.10;92.30;;;;;;5071170;28;20102;-65
2022/10/26 10:05:22;;;;;;;6.00;2.50;;;27.50;90.90;;;;;;5070729;28;20040;-65
2022/10/26 10:07:49;;;;;;;5.70;2.10;;;27.20;88.90;;;;;;5047036;28;20045;-65
2022/10/26 10:10:18;;;;;;;5.63;2.03;;;27.50;90.90;;;;;;5047723;28;20106;-65
2022/10/26 10:12:49;;;;;;;5.95;2.25;;;27.80;90.00;;;;;;5070376;28;20056;-65
2022/10/26 10:15:23;;;;;;;6.25;2.47;;;27.60;89.50;;;;;;5053472;28;20123;-65
2022/10/26 10:17:51;;;;;;;4.60;2.13;;;27.30;87.80;;;;;;5052981;28;20049;-65
2022/10/26 10:20:21;;;;;;;4.57;2.00;;;27.10;90.10;;;;;;5056660;28;20099;-65
2022/10/26 10:22:58;;;;;;;6.07;2.10;;;27.50;90.20;;;;;;5045149;28;20053;-66
2022/10/26 10:25:36;;;;;;;3.75;1.80;;;27.90;87.40;;;;;;5051739;28;20493;-66
2022/10/26 10:28:19;;;;;;;3.03;1.80;;;27.70;86.10;;;;;;5053619;28;20045;-64
2022/10/26 10:30:56;;;;;;;3.80;1.90;;;26.70;88.50;;;;;;5052245;28;20102;-64
2022/10/26 10:33:23;;;;;;;4.70;2.03;;;25.50;90.10;;;;;;5069644;28;20048;-65
2022/10/26 10:35:51;;;;;;;4.28;2.28;;;24.30;91.20;;;;;;5047333;28;20048;-64
2022/10/26 10:38:21;;;;;;;6.38;2.33;;;23.50;92.80;;;;;;5045041;28;20115;-64
2022/10/26 10:40:52;;;;;;;4.70;2.23;;;22.70;94.00;;;;;;5034357;28;20056;-64
2022/10/26 10:43:20;;;;;;;3.83;2.20;;;22.30;95.10;;;;;;5051862;28;20303;-65
2022/10/26 10:45:49;;;;;;;6.93;2.72;;;21.80;96.60;;;;;;5047405;28;20404;-65
2022/10/26 10:48:20;;;;;;;8.10;2.63;;;21.30;98.00;;;;;;5035525;28;20571;-65
2022/10/26 10:50:56;;;;;;;5.57;2.42;;;20.80;99.10;;;;;;5061227;28;20131;-64
2022/10/26 10:53:26;;;;;;;3.80;2.13;;;20.40;99.90;;;;;;5070619;28;20454;-64
2022/10/26 10:56:06;;;;;;;10.40;2.58;;;20.20;99.90;;;;;;5069829;28;20061;-64
2022/10/26 10:58:36;;;;;;;;;;;20.10;99.90;;;;;;5052190;28;20045;-64
2022/10/26 11:01:03;;;;;;;6.50;2.65;;;19.90;99.90;;;;;;5049257;28;19982;-64
2022/10/26 11:03:47;;;;;;;6.22;2.70;;;19.90;99.90;;;;;;5069697;28;20094;-65
2022/10/26 11:06:17;;;;;;;6.80;3.35;;;19.90;99.90;;;;;;5047009;28;20056;-65
2022/10/26 11:08:49;;;;;;;7.15;2.80;;;20.10;99.90;;;;;;5045743;28;20049;-65
2022/10/26 11:11:20;;;;;;;6.70;2.78;;;20.30;99.90;;;;;;5051353;28;20412;-65
2022/10/26 11:13:52;;;;;;;6.22;2.97;;;20.90;99.90;;;;;;5058847;28;20091;-65
2022/10/26 11:16:23;;;;;;;6.38;2.70;;;21.70;99.90;;;;;;5044371;28;20130;-66
2022/10/26 11:18:56;;;;;;;6.18;2.38;;;22.60;99.90;;;;;;5047104;28;20094;-66
2022/10/26 11:21:28;;;;;;;6.50;2.40;;;23.40;99.90;;;;;;5063148;28;20437;-65
2022/10/26 11:24:12;;;;;;;4.57;2.55;;;24.00;99.50;;;;;;5054254;28;20127;-65
2022/10/26 11:26:44;;;;;;;3.83;2.20;;;24.50;98.40;;;;;;5055341;28;20052;-65
2022/10/26 11:29:22;;;;;;;6.95;2.20;;;24.30;98.30;;;;;;5048112;28;20129;-66
2022/10/26 11:31:54;;;;;;;3.83;2.22;;;24.10;97.60;;;;;;5073263;28;20048;-65
2022/10/26 11:34:30;;;;;;;6.78;2.50;;;24.00;98.50;;;;;;5073829;28;20392;-65
2022/10/26 11:37:03;;;;;;;6.10;2.63;;;23.90;98.20;;;;;;5051089;28;20051;-63
2022/10/26 11:39:38;;;;;;;4.13;2.05;;;24.10;98.70;;;;;;5043280;28;20049;-65
2022/10/26 11:42:15;;;;;;;5.60;2.65;;;25.00;97.00;;;;;;5054643;28;20095;-64
2022/10/26 11:44:48;;;;;;;4.97;2.30;;;25.90;96.00;;;;;;5048049;28;20040;-65
2022/10/26 11:47:18;;;;;;;3.55;2.00;;;26.70;95.00;;;;;;5056890;28;20423;-65
2022/10/26 11:49:52;;;;;;;5.45;2.10;;;27.10;94.00;;;;;;5048273;28;20045;-65
2022/10/26 11:52:24;;;;;;;5.32;2.25;;;27.50;93.20;;;;;;5048151;28;20089;-65
2022/10/26 11:54:55;;;;;;;4.90;2.67;;;27.90;92.70;;;;;;5056480;28;20088;-64
2022/10/26 11:57:24;;;;;;;6.85;2.40;;;28.30;91.00;;;;;;5073823;28;20098;-65
2022/10/26 11:59:54;;;;;;;5.50;2.13;;;28.70;91.00;;;;;;5048303;28;20052;-66
2022/10/26 12:02:23;;;;;;;5.07;1.77;;;28.90;90.80;;;;;;5048287;28;20102;-65
2022/10/26 12:04:57;;;;;;;5.65;2.25;;;29.00;90.30;;;;;;5071546;28;20495;-65
2022/10/26 12:07:29;;;;;;;3.13;1.90;;;29.00;88.50;;;;;;5048996;28;20090;-65
2022/10/26 12:09:57;;;;;;;4.15;1.90;;;29.10;89.30;;;;;;5054198;28;20070;-65
2022/10/26 12:12:32;;;;;;;5.05;1.88;;;29.30;89.70;;;;;;5048369;28;20107;-65
2022/10/26 12:15:10;;;;;;;4.57;2.00;;;29.50;88.30;;;;;;5048210;28;20056;-65
2022/10/26 12:17:46;;;;;;;6.57;2.17;;;29.70;86.70;;;;;;5049603;28;20048;-65
2022/10/26 12:20:43;;;;;;;5.35;1.85;;;28.50;86.30;;;;;;5046123;28;20553;-65
2022/10/26 12:23:11;;;;;;;5.50;2.22;;;27.40;89.20;;;;;;5071269;28;20499;-65
2022/10/26 12:25:39;;;;;;;4.88;2.00;;;26.40;91.00;;;;;;5060480;28;20103;-65
2022/10/26 12:28:25;;;;;;;3.50;1.95;;;25.90;92.00;;;;;;5032662;28;20435;-65
2022/10/26 12:30:52;;;;;;;6.10;2.15;;;25.70;91.60;;;;;;5051212;28;20053;-65
2022/10/26 12:33:29;;;;;;;6.55;2.13;;;26.30;91.60;;;;;;5053959;28;20068;-65
2022/10/26 12:35:57;;;;;;;6.78;2.20;;;26.30;91.20;;;;;;5038653;28;20053;-65
2022/10/26 12:38:59;;;;;;;7.82;2.47;;;26.60;91.10;;;;;;5052221;28;20404;-65
2022/10/26 12:41:27;;;;;;;6.13;2.70;;;25.80;91.10;;;;;;5054191;28;20511;-65
2022/10/26 12:43:58;;;;;;;8.10;2.70;;;24.80;92.50;;;;;;5040511;28;20053;-64
2022/10/26 12:46:41;;;;;;;4.90;2.70;;;23.90;94.20;;;;;;5058985;28;20114;-64
2022/10/26 12:49:56;;;;;;;8.70;2.65;;;22.80;96.50;;;;;;5052146;28;20053;-65
2022/10/26 12:52:47;;;;;;;6.20;2.92;;;22.10;98.40;;;;;;5028691;28;20055;-64
2022/10/26 12:56:02;;;;;;;5.05;2.42;;;21.40;99.90;;;;;;5050804;28;20504;-64
2022/10/26 12:59:01;;;;;;;8.40;3.30;;;20.90;99.90;;;;;;5056862;28;20048;-64
2022/10/26 13:02:10;;;;;;;6.13;2.63;;;20.80;99.90;;;;;;5039558;28;20063;-64